createdAt,value
2018-12-08T00:02:04.978Z,12.54
2018-12-08T00:04:34.348Z,12.48
2018-12-08T00:07:03.732Z,12.34
2018-12-08T00:09:33.056Z,12.68
2018-12-08T00:12:04.449Z,12.82
2018-12-08T00:14:33.606Z,12.68
2018-12-08T00:17:02.784Z,12.23
2018-12-08T00:19:32.911Z,11.94
2018-12-08T00:22:02.534Z,12.08
2018-12-08T00:24:32.327Z,12.05
2018-12-08T00:27:01.787Z,12.29
2018-12-08T00:29:30.961Z,11.63
2018-12-08T00:32:00.236Z,11.72
2018-12-08T00:34:30.623Z,12.24
2018-12-08T00:36:59.801Z,11.77
2018-12-08T00:39:28.993Z,11.68
2018-12-08T00:41:58.175Z,11.50
2018-12-08T00:44:27.383Z,12.04
2018-12-08T00:46:57.451Z,11.43
2018-12-08T00:49:26.724Z,11.92
2018-12-08T00:51:55.918Z,11.22
2018-12-08T00:54:25.260Z,11.68
2018-12-08T00:56:55.788Z,10.94
2018-12-08T00:59:28.536Z,11.76
2018-12-08T01:01:57.667Z,11.84
2018-12-08T01:04:26.901Z,11.53
2018-12-08T01:06:56.893Z,11.21
2018-12-08T01:09:26.624Z,11.17
2018-12-08T01:11:56.192Z,11.66
2018-12-08T01:14:25.711Z,11.19
2018-12-08T01:16:56.277Z,11.04
2018-12-08T01:19:25.488Z,11.73
2018-12-08T01:21:55.919Z,12.34
2018-12-08T01:24:25.648Z,12.30
2018-12-08T01:26:55.379Z,12.46
2018-12-08T01:29:24.606Z,11.92
2018-12-08T01:31:53.948Z,11.37
2018-12-08T01:34:23.655Z,12.08
2018-12-08T01:36:53.271Z,11.57
2018-12-08T01:39:22.567Z,12.02
2018-12-08T01:41:51.867Z,11.66
2018-12-08T01:44:21.032Z,11.58
2018-12-08T01:46:51.230Z,11.76
2018-12-08T01:49:21.042Z,11.34
2018-12-08T01:51:50.237Z,11.65
2018-12-08T01:54:19.511Z,11.77
2018-12-08T01:56:48.955Z,11.89
2018-12-08T01:59:18.607Z,11.62
2018-12-08T02:01:48.495Z,11.85
2018-12-08T02:04:17.698Z,11.95
2018-12-08T02:06:46.876Z,11.18
2018-12-08T02:09:16.988Z,11.53
2018-12-08T02:11:49.595Z,11.25
2018-12-08T02:14:18.813Z,10.88
2018-12-08T02:16:48.063Z,11.19
2018-12-08T02:19:17.424Z,11.11
2018-12-08T02:21:47.545Z,11.37
2018-12-08T02:24:17.684Z,11.43
2018-12-08T02:26:48.442Z,11.71
2018-12-08T02:29:19.178Z,11.76
2018-12-08T02:31:48.489Z,12.18
2018-12-08T02:34:18.501Z,11.34
2018-12-08T02:36:47.758Z,11.54
2018-12-08T02:39:16.921Z,11.64
2018-12-08T02:41:46.079Z,11.71
2018-12-08T02:44:15.280Z,11.62
2018-12-08T02:46:46.328Z,11.38
2018-12-08T02:49:15.574Z,11.21
2018-12-08T02:51:44.798Z,11.12
2018-12-08T02:54:15.302Z,11.50
2018-12-08T02:56:45.054Z,11.39
2018-12-08T02:59:14.198Z,11.43
2018-12-08T03:01:43.449Z,11.52
2018-12-08T03:04:12.782Z,11.65
2018-12-08T03:06:42.819Z,11.85
2018-12-08T03:09:14.339Z,11.57
2018-12-08T03:11:43.518Z,11.55
2018-12-08T03:14:12.792Z,11.95
2018-12-08T03:16:42.020Z,11.78
2018-12-08T03:19:11.196Z,11.96
2018-12-08T03:21:41.438Z,11.56
2018-12-08T03:24:10.719Z,11.57
2018-12-08T03:26:39.899Z,11.76
2018-12-08T03:29:09.084Z,11.81
2018-12-08T03:31:39.976Z,11.81
2018-12-08T03:34:10.384Z,11.95
2018-12-08T03:36:39.549Z,12.00
2018-12-08T03:39:09.237Z,11.65
2018-12-08T03:41:38.472Z,11.36
2018-12-08T03:44:07.639Z,11.74
2018-12-08T03:46:37.924Z,11.87
2018-12-08T03:49:07.116Z,11.79
2018-12-08T03:51:36.423Z,12.01
2018-12-08T03:54:05.787Z,12.22
2018-12-08T03:56:35.040Z,12.25
2018-12-08T03:59:07.907Z,12.63
2018-12-08T04:01:37.205Z,12.11
2018-12-08T04:04:06.352Z,12.04
2018-12-08T04:06:35.635Z,12.02
2018-12-08T04:09:05.673Z,11.95
2018-12-08T04:11:36.493Z,11.73
2018-12-08T04:14:05.647Z,12.17
2018-12-08T04:16:34.915Z,11.69
2018-12-08T04:19:04.066Z,11.09
2018-12-08T04:21:34.645Z,11.73
2018-12-08T04:24:04.476Z,11.95
2018-12-08T04:26:33.707Z,12.43
2018-12-08T04:29:02.934Z,12.34
2018-12-08T04:31:32.100Z,11.19
2018-12-08T04:34:02.293Z,11.32
2018-12-08T04:36:31.997Z,12.11
2018-12-08T04:39:01.237Z,12.17
2018-12-08T04:41:31.612Z,11.90
2018-12-08T04:44:00.774Z,11.72
2018-12-08T04:46:31.434Z,11.74
2018-12-08T04:49:01.139Z,11.54
2018-12-08T04:51:31.341Z,11.54
2018-12-08T04:54:00.519Z,12.00
2018-12-08T04:56:29.715Z,11.72
2018-12-08T04:58:59.434Z,11.94
2018-12-08T05:01:29.085Z,11.95
2018-12-08T05:03:58.383Z,12.12
2018-12-08T05:06:27.748Z,11.27
2018-12-08T05:08:56.953Z,11.70
2018-12-08T05:11:27.443Z,11.68
2018-12-08T05:13:56.999Z,11.50
2018-12-08T05:16:26.164Z,12.21
2018-12-08T05:18:55.460Z,12.07
2018-12-08T05:21:24.743Z,11.66
2018-12-08T05:23:54.355Z,11.73
2018-12-08T05:26:24.214Z,11.36
2018-12-08T05:28:53.349Z,11.92
2018-12-08T05:31:22.523Z,11.95
2018-12-08T05:33:52.848Z,11.75
2018-12-08T05:36:23.242Z,11.38
2018-12-08T05:38:52.843Z,11.50
2018-12-08T05:41:22.150Z,11.71
2018-12-08T05:43:51.352Z,11.20
2018-12-08T05:46:20.667Z,11.52
2018-12-08T05:48:50.530Z,11.98
2018-12-08T05:51:20.179Z,11.71
2018-12-08T05:53:49.340Z,11.54
2018-12-08T05:56:18.794Z,12.05
2018-12-08T05:58:47.967Z,11.67
2018-12-08T06:01:18.702Z,11.75
2018-12-08T06:03:49.286Z,11.83
2018-12-08T06:06:18.519Z,12.01
2018-12-08T06:08:47.670Z,12.31
2018-12-08T06:11:18.160Z,12.48
2018-12-08T06:13:47.810Z,12.03
2018-12-08T06:16:17.633Z,11.55
2018-12-08T06:18:47.113Z,11.20
2018-12-08T06:21:16.268Z,11.60
2018-12-08T06:23:45.444Z,11.54
2018-12-08T06:26:22.203Z,11.62
2018-12-08T06:28:54.165Z,11.84
2018-12-08T06:31:23.419Z,12.13
2018-12-08T06:33:52.582Z,11.83
2018-12-08T06:36:23.058Z,11.62
2018-12-08T06:38:52.300Z,11.93
2018-12-08T06:41:21.594Z,12.05
2018-12-08T06:43:50.857Z,12.53
2018-12-08T06:46:20.019Z,12.20
2018-12-08T06:48:51.537Z,12.13
2018-12-08T06:51:20.798Z,11.50
2018-12-08T06:53:50.053Z,11.88
2018-12-08T06:56:19.305Z,11.90
2018-12-08T06:58:48.435Z,12.03
2018-12-08T07:02:47.900Z,11.81
2018-12-08T07:05:17.216Z,11.46
2018-12-08T07:07:46.784Z,12.06
2018-12-08T07:10:15.994Z,11.95
2018-12-08T07:12:46.488Z,12.40
2018-12-08T07:15:15.679Z,12.25
2018-12-08T07:17:46.155Z,11.95
2018-12-08T07:20:15.443Z,11.59
2018-12-08T07:22:44.655Z,11.93
2018-12-08T07:25:14.663Z,12.30
2018-12-08T07:27:43.901Z,12.60
2018-12-08T07:30:13.219Z,11.91
2018-12-08T07:32:42.503Z,11.24
2018-12-08T07:35:11.802Z,11.42
2018-12-08T07:37:43.817Z,11.22
2018-12-08T07:40:12.979Z,11.14
2018-12-08T07:42:42.128Z,10.59
2018-12-08T07:45:12.049Z,11.26
2018-12-08T07:47:41.771Z,10.77
2018-12-08T07:50:11.620Z,10.73
2018-12-08T07:52:41.945Z,11.14
2018-12-08T07:55:11.144Z,11.22
2018-12-08T07:57:40.355Z,10.85
2018-12-08T08:00:13.080Z,10.38
2018-12-08T08:04:11.679Z,10.61
2018-12-08T08:06:40.935Z,10.19
2018-12-08T08:09:10.273Z,10.91
2018-12-08T08:11:40.587Z,10.75
2018-12-08T08:14:10.808Z,11.29
2018-12-08T08:16:39.994Z,11.49
2018-12-08T08:19:09.145Z,11.24
2018-12-08T08:21:38.324Z,11.08
2018-12-08T08:24:09.382Z,11.39
2018-12-08T08:26:38.562Z,11.56
2018-12-08T08:29:07.845Z,12.11
2018-12-08T08:31:37.132Z,12.43
2018-12-08T08:34:06.282Z,11.78
2018-12-08T08:36:36.477Z,11.50
2018-12-08T08:39:08.030Z,11.81
2018-12-08T08:41:37.389Z,11.59
2018-12-08T08:44:06.556Z,11.49
2018-12-08T08:46:37.759Z,11.38
2018-12-08T08:49:07.115Z,11.62
2018-12-08T08:51:36.403Z,11.79
2018-12-08T08:54:05.552Z,11.69
2018-12-08T08:56:34.862Z,11.77
2018-12-08T08:59:05.288Z,12.11
2018-12-08T09:01:34.505Z,11.39
2018-12-08T09:04:05.482Z,11.96
2018-12-08T09:06:34.639Z,11.37
2018-12-08T09:09:05.067Z,11.43
2018-12-08T09:11:36.757Z,12.04
2018-12-08T09:14:13.050Z,11.32
2018-12-08T09:16:37.184Z,11.88
2018-12-08T09:19:07.340Z,12.15
2018-12-08T09:21:36.523Z,11.78
2018-12-08T09:24:05.779Z,11.44
2018-12-08T09:26:35.061Z,11.79
2018-12-08T09:29:04.546Z,11.74
2018-12-08T09:31:36.963Z,11.79
2018-12-08T09:34:06.146Z,11.64
2018-12-08T09:36:35.445Z,11.59
2018-12-08T09:39:07.522Z,11.64
2018-12-08T09:41:37.635Z,12.06
2018-12-08T09:44:06.840Z,12.25
2018-12-08T09:46:36.146Z,12.38
2018-12-08T09:49:05.310Z,12.41
2018-12-08T09:51:35.030Z,12.66
2018-12-08T09:54:07.396Z,11.98
2018-12-08T09:56:36.802Z,11.82
2018-12-08T09:59:05.969Z,11.90
2018-12-08T10:01:35.187Z,11.65
2018-12-08T10:04:06.171Z,12.25
2018-12-08T10:06:35.340Z,12.39
2018-12-08T10:09:06.691Z,12.57
2018-12-08T10:11:35.883Z,12.72
2018-12-08T10:14:05.769Z,12.20
2018-12-08T10:16:36.937Z,12.02
2018-12-08T10:19:06.164Z,11.83
2018-12-08T10:21:35.336Z,11.80
2018-12-08T10:24:04.745Z,12.00
2018-12-08T10:26:35.026Z,11.85
2018-12-08T10:29:04.784Z,12.25
2018-12-08T10:31:33.991Z,12.72
2018-12-08T10:34:03.219Z,12.88
2018-12-08T10:36:32.390Z,12.76
2018-12-08T10:39:04.120Z,12.59
2018-12-08T10:41:33.351Z,11.89
2018-12-08T10:44:02.595Z,12.29
2018-12-08T10:46:31.880Z,12.25
2018-12-08T10:49:02.470Z,12.22
2018-12-08T10:51:32.093Z,12.60
2018-12-08T10:54:03.280Z,12.67
2018-12-08T10:56:32.566Z,12.43
2018-12-08T10:59:01.917Z,12.19
2018-12-08T11:01:37.346Z,12.44
2018-12-08T11:04:08.212Z,12.77
2018-12-08T11:06:37.427Z,13.26
2018-12-08T11:09:07.768Z,13.47
2018-12-08T11:11:37.943Z,13.25
2018-12-08T11:14:07.130Z,13.17
2018-12-08T11:16:36.688Z,13.42
2018-12-08T11:19:06.074Z,13.20
2018-12-08T11:21:35.254Z,13.03
2018-12-08T11:24:05.911Z,13.50
2018-12-08T11:26:35.168Z,13.86
2018-12-08T11:29:04.915Z,13.85
2018-12-08T11:31:34.134Z,13.26
2018-12-08T11:34:03.406Z,13.98
2018-12-08T11:36:34.112Z,13.61
2018-12-08T11:39:05.072Z,12.75
2018-12-08T11:41:38.883Z,13.06
2018-12-08T11:44:08.212Z,13.47
2018-12-08T11:46:39.734Z,13.08
2018-12-08T11:49:09.041Z,12.73
2018-12-08T11:51:38.668Z,13.11
2018-12-08T11:54:07.867Z,13.11
2018-12-08T11:56:38.896Z,13.70
2018-12-08T11:59:08.873Z,13.49
2018-12-08T12:01:38.047Z,13.67
2018-12-08T12:04:07.247Z,13.49
2018-12-08T12:06:36.479Z,13.33
2018-12-08T12:09:08.594Z,13.41
2018-12-08T12:11:37.759Z,13.57
2018-12-08T12:14:06.995Z,13.70
2018-12-08T12:16:36.946Z,12.91
2018-12-08T12:19:08.164Z,13.18
2018-12-08T12:21:37.972Z,13.38
2018-12-08T12:24:07.148Z,13.54
2018-12-08T12:26:36.314Z,13.45
2018-12-08T12:29:05.674Z,13.65
2018-12-08T12:31:35.339Z,14.13
2018-12-08T12:34:05.003Z,14.76
2018-12-08T12:36:34.275Z,14.62
2018-12-08T12:39:05.414Z,14.41
2018-12-08T12:41:35.272Z,13.86
2018-12-08T12:44:05.549Z,13.60
2018-12-08T12:46:34.732Z,13.90
2018-12-08T12:49:03.939Z,14.20
2018-12-08T12:51:34.235Z,14.30
2018-12-08T12:54:04.291Z,13.97
2018-12-08T12:56:34.876Z,13.79
2018-12-08T12:59:04.071Z,13.44
2018-12-08T13:01:33.271Z,13.17
2018-12-08T13:04:02.626Z,14.02
2018-12-08T13:06:35.018Z,13.93
2018-12-08T13:09:06.741Z,14.10
2018-12-08T13:11:35.907Z,13.90
2018-12-08T13:14:05.207Z,13.60
2018-12-08T13:16:34.950Z,13.95
2018-12-08T13:19:04.701Z,14.08
2018-12-08T13:21:33.860Z,14.45
2018-12-08T13:24:03.126Z,14.24
2018-12-08T13:26:32.320Z,14.13
2018-12-08T13:29:03.216Z,13.71
2018-12-08T13:31:32.852Z,13.58
2018-12-08T13:34:12.158Z,13.28
2018-12-08T13:36:41.954Z,13.90
2018-12-08T13:39:11.772Z,13.99
2018-12-08T13:41:41.427Z,13.99
2018-12-08T13:44:18.549Z,14.37
2018-12-08T13:46:47.730Z,14.27
2018-12-08T13:49:17.376Z,14.67
2018-12-08T13:51:47.065Z,14.24
2018-12-08T13:54:53.461Z,13.90
2018-12-08T13:57:22.892Z,14.53
2018-12-08T13:59:54.427Z,15.07
2018-12-08T14:02:25.028Z,15.02
2018-12-08T14:04:54.416Z,14.88
2018-12-08T14:07:23.586Z,14.84
2018-12-08T14:09:53.324Z,15.00
2018-12-08T14:12:22.739Z,14.25
2018-12-08T14:14:52.540Z,14.60
2018-12-08T14:17:21.789Z,14.46
2018-12-08T14:19:50.961Z,13.88
2018-12-08T14:22:21.817Z,13.80
2018-12-08T14:24:51.062Z,14.43
2018-12-08T14:27:20.822Z,14.19
2018-12-08T14:29:50.011Z,14.58
2018-12-08T14:32:19.424Z,14.54
2018-12-08T14:34:49.341Z,14.55
2018-12-08T14:37:18.532Z,14.32
2018-12-08T14:39:49.471Z,14.51
2018-12-08T14:42:18.670Z,14.83
2018-12-08T14:44:49.491Z,14.59
2018-12-08T14:47:19.179Z,14.67
2018-12-08T14:49:48.479Z,15.16
2018-12-08T14:52:18.116Z,14.81
2018-12-08T14:54:47.299Z,15.38
2018-12-08T14:57:16.902Z,15.28
2018-12-08T14:59:46.104Z,15.32
2018-12-08T15:02:15.367Z,15.67
2018-12-08T15:04:44.954Z,14.39
2018-12-08T15:07:14.174Z,14.99
2018-12-08T15:09:44.597Z,14.90
2018-12-08T15:12:13.743Z,14.24
2018-12-08T15:14:42.922Z,14.35
2018-12-08T15:17:12.917Z,14.25
2018-12-08T15:19:42.076Z,14.12
2018-12-08T15:22:11.682Z,13.92
2018-12-08T15:24:40.968Z,14.05
2018-12-08T15:27:10.170Z,14.31
2018-12-08T15:29:39.983Z,14.60
2018-12-08T15:32:09.379Z,14.93
2018-12-08T15:34:39.163Z,15.24
2018-12-08T15:37:08.523Z,14.99
2018-12-08T15:39:37.796Z,14.39
2018-12-08T15:42:08.584Z,14.95
2018-12-08T15:44:40.214Z,14.99
2018-12-08T15:47:11.016Z,15.12
2018-12-08T15:49:40.489Z,14.89
2018-12-08T15:52:12.512Z,14.83
2018-12-08T15:54:44.892Z,14.65
2018-12-08T15:57:14.194Z,14.97
2018-12-08T15:59:43.419Z,14.83
2018-12-08T16:02:12.584Z,15.10
2018-12-08T16:04:41.841Z,15.23
2018-12-08T16:07:13.125Z,14.53
2018-12-08T16:09:42.326Z,14.25
2018-12-08T16:12:11.590Z,14.55
2018-12-08T16:14:40.790Z,14.95
2018-12-08T16:17:11.480Z,15.39
2018-12-08T16:19:41.734Z,15.07
2018-12-08T16:22:10.975Z,14.90
2018-12-08T16:24:40.228Z,14.54
2018-12-08T16:27:09.757Z,14.83
2018-12-08T16:29:39.000Z,14.57
2018-12-08T16:32:10.077Z,14.48
2018-12-08T16:34:39.420Z,14.34
2018-12-08T16:37:08.684Z,14.10
2018-12-08T16:39:37.940Z,14.43
2018-12-08T16:42:07.267Z,14.79
2018-12-08T16:44:37.775Z,14.88
2018-12-08T16:47:07.204Z,14.98
2018-12-08T16:49:37.229Z,15.22
2018-12-08T16:52:06.847Z,14.73
2018-12-08T16:54:36.748Z,15.10
2018-12-08T16:57:06.741Z,14.66
2018-12-08T16:59:36.024Z,14.55
2018-12-08T17:02:05.724Z,14.83
2018-12-08T17:04:34.978Z,14.10
2018-12-08T17:07:05.287Z,13.81
2018-12-08T17:09:34.587Z,14.14
2018-12-08T17:12:03.955Z,14.63
2018-12-08T17:14:33.523Z,14.21
2018-12-08T17:17:02.699Z,14.57
2018-12-08T17:19:33.211Z,13.43
2018-12-08T17:22:02.431Z,13.71
2018-12-08T17:24:31.782Z,13.30
2018-12-08T17:27:01.012Z,13.67
2018-12-08T17:29:30.273Z,13.72
2018-12-08T17:32:01.586Z,14.13
2018-12-08T17:34:30.754Z,14.40
2018-12-08T17:36:59.968Z,14.13
2018-12-08T17:39:29.983Z,14.37
2018-12-08T17:41:59.886Z,13.82
2018-12-08T17:44:30.486Z,13.67
2018-12-08T17:46:59.811Z,14.28
2018-12-08T17:49:29.086Z,14.21
2018-12-08T17:51:59.271Z,14.90
2018-12-08T17:54:29.272Z,15.07
2018-12-08T17:56:58.493Z,14.97
2018-12-08T17:59:27.757Z,14.69
2018-12-08T18:03:26.419Z,15.05
2018-12-08T18:05:57.655Z,14.72
2018-12-08T18:08:27.224Z,14.99
2018-12-08T18:10:56.621Z,15.07
2018-12-08T18:13:26.030Z,14.54
2018-12-08T18:15:55.867Z,14.38
2018-12-08T18:18:25.978Z,14.67
2018-12-08T18:20:55.261Z,14.98
2018-12-08T18:23:24.875Z,15.24
2018-12-08T18:25:54.088Z,14.62
2018-12-08T18:28:24.239Z,15.19
2018-12-08T18:30:54.811Z,14.35
2018-12-08T18:33:23.990Z,14.89
2018-12-08T18:35:53.224Z,14.51
2018-12-08T18:38:22.704Z,14.52
2018-12-08T18:40:53.532Z,15.05
2018-12-08T18:43:22.770Z,14.68
2018-12-08T18:45:52.187Z,14.41
2018-12-08T18:48:21.547Z,14.51
2018-12-08T18:50:50.768Z,14.66
2018-12-08T18:53:21.357Z,14.39
2018-12-08T18:55:50.760Z,14.44
2018-12-08T18:58:19.938Z,14.88
2018-12-08T19:00:49.279Z,14.21
2018-12-08T19:03:18.506Z,14.39
2018-12-08T19:05:49.080Z,14.40
2018-12-08T19:08:18.384Z,14.44
2018-12-08T19:10:47.574Z,14.67
2018-12-08T19:13:16.836Z,14.31
2018-12-08T19:15:46.700Z,14.59
2018-12-08T19:18:16.854Z,14.56
2018-12-08T19:20:46.152Z,14.84
2018-12-08T19:23:15.800Z,14.52
2018-12-08T19:25:45.116Z,14.41
2018-12-08T19:28:14.396Z,14.62
2018-12-08T19:30:45.091Z,14.42
2018-12-08T19:33:14.585Z,14.39
2018-12-08T19:35:44.141Z,14.24
2018-12-08T19:38:13.419Z,14.66
2018-12-08T19:40:42.648Z,14.07
2018-12-08T19:43:12.850Z,14.45
2018-12-08T19:45:42.192Z,14.21
2018-12-08T19:48:11.428Z,14.65
2018-12-08T19:50:41.439Z,14.80
2018-12-08T19:53:12.919Z,14.57
2018-12-08T19:55:43.373Z,14.62
2018-12-08T19:58:12.691Z,14.75
2018-12-08T20:00:41.985Z,14.89
2018-12-08T20:03:11.196Z,15.06
2018-12-08T20:05:41.712Z,15.12
2018-12-08T20:08:11.119Z,14.57
2018-12-08T20:10:40.352Z,14.45
2018-12-08T20:13:09.906Z,14.27
2018-12-08T20:15:40.507Z,14.46
2018-12-08T20:18:11.539Z,14.46
2018-12-08T20:20:40.706Z,13.98
2018-12-08T20:23:09.915Z,14.07
2018-12-08T20:25:39.348Z,14.30
2018-12-08T20:28:08.623Z,13.87
2018-12-08T20:30:38.958Z,14.28
2018-12-08T20:33:08.137Z,13.69
2018-12-08T20:35:38.568Z,14.26
2018-12-08T20:38:07.958Z,14.28
2018-12-08T20:40:38.019Z,14.46
2018-12-08T20:43:09.074Z,14.27
2018-12-08T20:45:39.359Z,14.25
2018-12-08T20:48:08.545Z,14.58
2018-12-08T20:50:37.825Z,13.94
2018-12-08T20:53:07.534Z,13.80
2018-12-08T20:55:36.767Z,13.80
2018-12-08T20:58:06.760Z,13.66
2018-12-08T21:00:35.975Z,14.09
2018-12-08T21:03:05.272Z,13.65
2018-12-08T21:05:37.186Z,13.70
2018-12-08T21:08:06.445Z,13.68
2018-12-08T21:10:36.583Z,13.35
2018-12-08T21:13:07.031Z,14.04
2018-12-08T21:15:36.721Z,13.73
2018-12-08T21:18:05.974Z,13.80
2018-12-08T21:20:35.390Z,14.27
2018-12-08T21:23:06.115Z,14.64
2018-12-08T21:25:37.192Z,13.78
2018-12-08T21:28:07.278Z,13.99
2018-12-08T21:30:36.519Z,13.39
2018-12-08T21:33:05.903Z,12.85
2018-12-08T21:35:35.259Z,13.19
2018-12-08T21:38:05.252Z,12.70
2018-12-08T21:40:35.153Z,12.56
2018-12-08T21:43:04.487Z,12.77
2018-12-08T21:45:33.762Z,13.34
2018-12-08T21:48:03.158Z,13.50
2018-12-08T21:50:34.427Z,14.02
2018-12-08T21:53:03.644Z,13.63
2018-12-08T21:55:33.033Z,13.93
2018-12-08T21:58:02.413Z,14.06
2018-12-08T22:00:32.712Z,13.53
2018-12-08T22:03:02.461Z,13.44
2018-12-08T22:05:31.734Z,13.93
2018-12-08T22:08:00.918Z,13.99
2018-12-08T22:10:30.239Z,13.77
2018-12-08T22:13:00.794Z,13.89
2018-12-08T22:15:29.959Z,13.59
2018-12-08T22:17:59.403Z,13.68
2018-12-08T22:20:28.607Z,13.70
2018-12-08T22:22:57.909Z,14.45
2018-12-08T22:25:28.319Z,14.75
2018-12-08T22:27:58.555Z,14.81
2018-12-08T22:30:27.748Z,14.67
2018-12-08T22:32:57.985Z,14.60
2018-12-08T22:35:27.651Z,14.34
2018-12-08T22:37:58.219Z,14.78
2018-12-08T22:40:27.510Z,15.16
2018-12-08T22:42:56.707Z,14.68
2018-12-08T22:45:26.172Z,14.89
2018-12-08T22:47:56.233Z,15.06
2018-12-08T22:50:25.531Z,15.33
2018-12-08T22:52:54.740Z,14.94
2018-12-08T22:55:24.220Z,15.10
2018-12-08T22:57:53.541Z,14.91
2018-12-08T23:00:37.950Z,14.42
2018-12-08T23:03:09.863Z,15.15
2018-12-08T23:05:39.323Z,15.03
2018-12-08T23:08:08.548Z,14.95
2018-12-08T23:10:38.735Z,14.85
2018-12-08T23:13:08.050Z,14.54
2018-12-08T23:15:37.317Z,14.13
2018-12-08T23:18:07.542Z,14.44
2018-12-08T23:20:38.113Z,14.80
2018-12-08T23:23:09.574Z,13.92
2018-12-08T23:25:38.802Z,14.15
2018-12-08T23:28:09.039Z,14.85
2018-12-08T23:30:38.323Z,14.54
2018-12-08T23:33:08.096Z,14.74
2018-12-08T23:35:38.411Z,14.97
2018-12-08T23:38:07.689Z,15.30
2018-12-08T23:40:37.047Z,15.22
2018-12-08T23:43:06.434Z,14.84
2018-12-08T23:45:37.755Z,14.98
2018-12-08T23:48:06.989Z,15.06
2018-12-08T23:50:36.327Z,15.34
2018-12-08T23:53:05.687Z,15.34
2018-12-08T23:55:35.519Z,14.62
2018-12-08T23:58:05.259Z,14.20
